Time;durP1;ratioP1;P1;durP2;ratioP2;P2;SDS_P1;SDS_P2;PMS_P1;PMS_P2;Temp;Humidity;BMP_temperature;BMP_pressure;BME280_temperature;BME280_humidity;BME280_pressure;Samples;Min_cycle;Max_cycle;Signal;HPM_P1;HPM_P2
2022/04/06 00:01:57;;;;;;;24.75;8.10;;;;;;;8.74;91.87;100317.53;5049424;28;20037;-75
2022/04/06 00:04:23;;;;;;;27.50;8.75;;;;;;;8.74;92.37;100310.38;5050347;28;20496;-75
2022/04/06 00:06:52;;;;;;;21.00;7.22;;;;;;;8.73;91.64;100310.50;5050511;28;20032;-76
2022/04/06 00:09:18;;;;;;;27.95;7.40;;;;;;;8.73;91.42;100305.13;5048472;28;20531;-75
2022/04/06 00:11:44;;;;;;;30.10;8.48;;;;;;;8.73;91.19;100307.81;5050658;28;20029;-75
2022/04/06 00:14:09;;;;;;;30.73;8.98;;;;;;;8.71;91.01;100302.56;5048640;28;20476;-75
2022/04/06 00:16:34;;;;;;;22.80;8.23;;;;;;;8.71;91.26;100305.25;5049357;28;20020;-75
2022/04/06 00:18:59;;;;;;;25.98;9.00;;;;;;;8.72;91.40;100303.41;5050378;28;20034;-75
2022/04/06 00:21:27;;;;;;;32.25;8.73;;;;;;;8.71;91.29;100299.91;5048410;28;20033;-75
2022/04/06 00:23:52;;;;;;;26.73;8.02;;;;;;;8.69;91.46;100301.81;5049050;28;20029;-75
2022/04/06 00:26:18;;;;;;;27.05;8.63;;;;;;;8.70;91.37;100306.22;5050613;28;20078;-75
2022/04/06 00:28:43;;;;;;;24.80;8.35;;;;;;;8.70;91.39;100300.00;5053196;28;20022;-75
2022/04/06 00:31:08;;;;;;;24.67;7.07;;;;;;;8.68;91.18;100291.22;5054074;28;20033;-75
2022/04/06 00:33:33;;;;;;;26.45;8.13;;;;;;;8.68;91.11;100288.53;5053061;28;20412;-75
2022/04/06 00:35:59;;;;;;;23.90;7.00;;;;;;;8.67;90.89;100300.25;5053038;28;20491;-75
2022/04/06 00:38:24;;;;;;;24.35;7.22;;;;;;;8.68;91.19;100293.91;5051321;28;20025;-75
2022/04/06 00:40:49;;;;;;;27.50;6.78;;;;;;;8.67;90.79;100294.88;5053233;28;20060;-75
2022/04/06 00:43:15;;;;;;;22.50;7.68;;;;;;;8.67;91.18;100292.22;5052803;28;20021;-75
2022/04/06 00:45:41;;;;;;;22.52;6.20;;;;;;;8.66;90.98;100290.50;5052524;28;20024;-75
2022/04/06 00:48:08;;;;;;;28.33;7.90;;;;;;;8.65;90.42;100291.44;5053691;28;20032;-75
2022/04/06 00:50:33;;;;;;;22.45;7.20;;;;;;;8.65;90.41;100283.41;5054157;28;20044;-75
2022/04/06 00:52:59;;;;;;;22.23;6.53;;;;;;;8.65;90.75;100278.91;5038534;28;20444;-75
2022/04/06 00:55:28;;;;;;;25.98;6.60;;;;;;;8.65;90.61;100284.25;5049714;28;20083;-75
2022/04/06 00:57:54;;;;;;;24.00;6.03;;;;;;;8.64;90.55;100285.25;5054183;28;20025;-75
2022/04/06 01:00:20;;;;;;;30.30;7.25;;;;;;;8.63;90.59;100283.53;5053678;28;20032;-76
2022/04/06 01:02:46;;;;;;;25.95;7.32;;;;;;;8.63;90.67;100272.81;5053702;28;20021;-76
2022/04/06 01:05:13;;;;;;;23.15;6.93;;;;;;;8.63;90.72;100285.34;5051509;28;20499;-76
2022/04/06 01:07:38;;;;;;;27.30;7.32;;;;;;;8.62;90.48;100272.94;5051729;28;20506;-76
2022/04/06 01:10:04;;;;;;;21.40;6.03;;;;;;;8.61;90.92;100265.84;5035765;28;20068;-76
2022/04/06 01:12:34;;;;;;;25.92;7.05;;;;;;;8.60;90.31;100267.69;5051215;28;20040;-76
2022/04/06 01:14:59;;;;;;;26.65;6.57;;;;;;;8.62;90.39;100270.25;5052137;28;20477;-76
2022/04/06 01:17:31;;;;;;;23.88;6.03;;;;;;;8.61;90.67;100264.06;5052796;28;20045;-76
2022/04/06 01:19:56;;;;;;;26.13;6.82;;;;;;;8.60;90.31;100256.13;5052899;28;20041;-75
2022/04/06 01:22:22;;;;;;;24.85;7.00;;;;;;;8.61;89.97;100263.16;5051382;28;20028;-75
2022/04/06 01:24:48;;;;;;;24.95;7.22;;;;;;;8.60;89.83;100256.13;5051202;28;20031;-75
2022/04/06 01:27:14;;;;;;;18.80;6.00;;;;;;;8.60;89.68;100262.31;5051960;28;20033;-75
2022/04/06 01:29:40;;;;;;;23.08;6.68;;;;;;;8.59;89.87;100260.59;5052861;28;20025;-75
2022/04/06 01:32:08;;;;;;;25.20;6.65;;;;;;;8.59;89.86;100251.72;5052328;28;20040;-75
2022/04/06 01:34:34;;;;;;;27.48;6.13;;;;;;;8.57;89.78;100258.03;5051078;28;20029;-75
2022/04/06 01:36:59;;;;;;;19.30;5.57;;;;;;;8.56;89.64;100255.50;5052538;28;20029;-75
2022/04/06 01:39:24;;;;;;;23.98;6.25;;;;;;;8.56;89.68;100258.16;5052123;28;20469;-75
2022/04/06 01:41:50;;;;;;;20.98;5.80;;;;;;;8.55;89.50;100251.09;5051040;28;20499;-75
2022/04/06 01:44:15;;;;;;;24.02;5.53;;;;;;;8.55;89.73;100253.75;5052259;28;20031;-75
2022/04/06 01:46:40;;;;;;;18.45;5.38;;;;;;;8.54;89.15;100252.91;5051037;28;20025;-75
2022/04/06 01:54:33;;;;;;;20.23;5.05;;;;;;;8.52;89.83;100245.97;5045804;28;20040;-74
2022/04/06 01:56:59;;;;;;;24.85;5.10;;;;;;;8.51;88.79;100246.97;5051598;28;20036;-74
2022/04/06 01:59:24;;;;;;;19.15;5.32;;;;;;;8.52;88.61;100248.63;5051467;28;20033;-74
2022/04/06 02:01:52;;;;;;;16.20;4.78;;;;;;;8.50;88.88;100235.38;5048635;28;20515;-74
2022/04/06 02:04:17;;;;;;;22.52;6.05;;;;;;;8.51;89.10;100241.59;5050428;28;20029;-74
2022/04/06 02:06:43;;;;;;;24.67;5.43;;;;;;;8.50;88.72;100238.03;5051118;28;20028;-74
2022/04/06 02:09:08;;;;;;;17.92;4.93;;;;;;;8.50;88.82;100245.22;5050459;28;20044;-74
2022/04/06 02:11:35;;;;;;;20.70;5.15;;;;;;;8.49;88.39;100233.69;5052051;28;20122;-74
2022/04/06 02:14:01;;;;;;;22.88;6.10;;;;;;;8.49;88.19;100233.69;5050320;28;20072;-74
2022/04/06 02:16:27;;;;;;;17.20;5.10;;;;;;;8.49;88.48;100240.84;5049333;28;20029;-74
2022/04/06 02:18:52;;;;;;;27.58;5.85;;;;;;;8.46;88.43;100227.69;5050648;28;20031;-74
2022/04/06 02:21:17;;;;;;;19.50;5.18;;;;;;;8.47;88.00;100226.72;5051325;28;20028;-74
2022/04/06 02:23:42;;;;;;;22.17;5.65;;;;;;;8.46;88.30;100227.69;5051976;28;20495;-74
2022/04/06 02:26:08;;;;;;;19.83;5.63;;;;;;;8.45;87.57;100228.63;5051910;28;20060;-74
2022/04/06 02:28:33;;;;;;;24.27;5.63;;;;;;;8.45;87.94;100223.28;5051024;28;20130;-74
2022/04/06 02:30:58;;;;;;;21.75;5.72;;;;;;;8.43;86.94;100223.38;5050361;28;20130;-74
2022/04/06 02:33:24;;;;;;;25.02;5.28;;;;;;;8.42;87.37;100219.00;5052108;28;20032;-74
2022/04/06 02:35:49;;;;;;;18.30;4.45;;;;;;;8.41;87.34;100219.97;5050510;28;20094;-74
2022/04/06 02:38:14;;;;;;;18.15;4.90;;;;;;;8.40;87.46;100216.44;5050347;28;20032;-74
2022/04/06 02:40:39;;;;;;;18.13;5.03;;;;;;;8.39;87.03;100221.91;5051448;28;20384;-74
2022/04/06 02:43:05;;;;;;;17.88;5.03;;;;;;;8.37;87.04;100213.97;5049160;28;20028;-74
2022/04/06 02:45:30;;;;;;;18.35;5.35;;;;;;;8.37;86.76;100221.16;5051455;28;20400;-74
2022/04/06 02:47:55;;;;;;;24.20;5.57;;;;;;;8.36;86.69;100211.41;5051342;28;20036;-74
2022/04/06 02:50:21;;;;;;;19.20;4.90;;;;;;;8.34;86.27;100206.16;5051321;28;20040;-74
2022/04/06 02:52:47;;;;;;;17.33;4.40;;;;;;;8.32;86.67;100204.59;5038850;28;20063;-74
2022/04/06 02:55:13;;;;;;;20.05;4.55;;;;;;;8.32;86.75;100212.63;5046964;28;20044;-74
2022/04/06 02:57:38;;;;;;;18.00;4.82;;;;;;;8.31;86.25;100202.88;5050659;28;20025;-74
2022/04/06 03:00:05;;;;;;;18.27;4.80;;;;;;;8.28;86.24;100198.59;5051043;28;20058;-74
2022/04/06 03:02:30;;;;;;;22.70;5.38;;;;;;;8.27;86.35;100199.56;5050799;28;20032;-74
2022/04/06 03:04:56;;;;;;;17.80;4.95;;;;;;;8.26;86.25;100195.19;5050711;28;20450;-74
2022/04/06 03:07:21;;;;;;;15.10;4.35;;;;;;;8.25;85.66;100197.97;5035151;28;20033;-74
2022/04/06 03:09:47;;;;;;;18.83;4.53;;;;;;;8.23;85.81;100190.91;5049411;28;20103;-74
2022/04/06 03:12:12;;;;;;;22.23;4.70;;;;;;;8.23;86.02;100190.91;5049996;28;20083;-74
2022/04/06 03:14:38;;;;;;;15.75;4.05;;;;;;;8.22;85.61;100191.88;5050492;28;20033;-74
2022/04/06 03:17:03;;;;;;;18.27;5.05;;;;;;;8.22;85.32;100185.66;5046801;28;20035;-74
2022/04/06 03:19:29;;;;;;;21.27;5.05;;;;;;;8.22;84.93;100177.63;5050958;28;20032;-74
2022/04/06 03:21:54;;;;;;;20.25;4.55;;;;;;;8.22;85.07;100178.47;5049786;28;20045;-74
2022/04/06 03:24:19;;;;;;;22.00;4.85;;;;;;;8.20;84.70;100171.56;5049671;28;20082;-74
2022/04/06 03:26:45;;;;;;;15.57;4.18;;;;;;;8.21;84.51;100168.75;5051155;28;20031;-74
2022/04/06 03:29:10;;;;;;;20.05;4.32;;;;;;;8.21;84.56;100170.56;5050899;28;20029;-74
2022/04/06 03:31:35;;;;;;;22.73;4.63;;;;;;;8.21;84.08;100173.25;5050277;28;20032;-74
2022/04/06 03:34:00;;;;;;;17.17;4.40;;;;;;;8.20;83.59;100163.53;5048527;28;20033;-74
2022/04/06 03:36:26;;;;;;;25.48;4.85;;;;;;;8.19;83.62;100159.13;5049256;28;20067;-74
2022/04/06 03:38:51;;;;;;;19.20;4.20;;;;;;;8.19;84.05;100154.63;5050244;28;20021;-74
2022/04/06 03:41:16;;;;;;;15.60;3.33;;;;;;;8.18;84.14;100154.75;5050528;28;20036;-74
2022/04/06 03:43:42;;;;;;;14.20;3.72;;;;;;;8.19;82.74;100151.09;5051049;28;20490;-74
2022/04/06 03:46:07;;;;;;;18.65;4.32;;;;;;;8.18;83.34;100147.56;5044658;28;20037;-74
2022/04/06 03:48:32;;;;;;;12.32;3.50;;;;;;;8.19;83.93;100151.09;5049076;28;20031;-74
2022/04/06 03:50:57;;;;;;;13.30;3.85;;;;;;;8.18;82.87;100144.88;5050587;28;20032;-74
2022/04/06 03:53:23;;;;;;;18.10;4.28;;;;;;;8.16;82.59;100146.81;5035304;28;20314;-74
2022/04/06 03:55:48;;;;;;;16.25;3.90;;;;;;;8.16;83.35;100143.31;5048291;28;20025;-74
2022/04/06 03:58:13;;;;;;;17.77;4.47;;;;;;;8.15;82.96;100142.44;5050821;28;20040;-74
2022/04/06 04:00:38;;;;;;;11.52;3.22;;;;;;;8.15;83.62;100144.25;5050082;28;20033;-74
2022/04/06 04:03:05;;;;;;;17.92;4.05;;;;;;;8.13;82.29;100141.69;5054833;28;20056;-74
2022/04/06 04:05:31;;;;;;;17.52;4.30;;;;;;;8.13;82.67;100146.22;5038947;28;20056;-74
2022/04/06 04:07:56;;;;;;;15.07;3.13;;;;;;;8.14;81.60;100153.25;5053533;28;20567;-74
2022/04/06 04:10:21;;;;;;;16.63;4.10;;;;;;;8.14;82.56;100142.53;5052752;28;20024;-74
2022/04/06 04:12:47;;;;;;;17.63;4.30;;;;;;;8.13;81.90;100141.69;5052495;28;20086;-74
2022/04/06 04:15:14;;;;;;;13.38;3.67;;;;;;;8.13;82.40;100143.53;5052788;28;20480;-74
2022/04/06 04:17:39;;;;;;;16.30;4.00;;;;;;;8.13;82.86;100139.03;5052038;28;20027;-74
2022/04/06 04:20:06;;;;;;;20.58;4.40;;;;;;;8.12;82.99;100147.16;5054392;28;20435;-74
2022/04/06 04:22:31;;;;;;;15.32;3.72;;;;;;;8.13;83.15;100140.88;5051537;28;20029;-74
2022/04/06 04:24:56;;;;;;;14.10;3.88;;;;;;;8.13;83.20;100141.69;5053878;28;20025;-74
2022/04/06 04:27:22;;;;;;;17.80;4.35;;;;;;;8.14;83.41;100135.38;5053783;28;20369;-74
2022/04/06 04:29:47;;;;;;;18.40;4.93;;;;;;;8.14;83.73;100138.06;5053232;28;20027;-74
2022/04/06 04:32:14;;;;;;;24.00;4.60;;;;;;;8.15;84.29;100136.22;5052718;28;20480;-74
2022/04/06 04:34:40;;;;;;;22.20;5.53;;;;;;;8.16;84.42;100128.09;5053545;28;20029;-74
2022/04/06 04:37:05;;;;;;;20.80;5.90;;;;;;;8.16;84.40;100132.59;5052767;28;20054;-74
2022/04/06 04:39:30;;;;;;;17.73;4.53;;;;;;;8.18;84.71;100130.66;5052222;28;20021;-74
2022/04/06 04:41:56;;;;;;;19.10;5.22;;;;;;;8.17;85.21;100124.44;5052110;28;20032;-74
2022/04/06 04:44:21;;;;;;;23.42;6.47;;;;;;;8.18;85.41;100123.47;5054000;28;20017;-74
2022/04/06 04:46:46;;;;;;;20.55;5.43;;;;;;;8.18;85.47;100128.81;5052731;28;20077;-74
2022/04/06 04:49:11;;;;;;;26.70;5.75;;;;;;;8.18;85.37;100118.09;5053804;28;20029;-74
2022/04/06 04:51:37;;;;;;;20.58;5.38;;;;;;;8.20;85.34;100116.19;5045900;28;20705;-74
2022/04/06 04:54:03;;;;;;;22.00;6.57;;;;;;;8.20;85.81;100116.19;5040335;28;20033;-73
2022/04/06 04:56:30;;;;;;;17.98;5.57;;;;;;;8.20;85.50;100107.31;5039004;28;20036;-73
2022/04/06 04:58:56;;;;;;;21.00;5.95;;;;;;;8.19;85.80;100106.44;5041883;28;20499;-73
2022/04/06 05:01:22;;;;;;;23.73;6.35;;;;;;;8.20;85.50;100104.63;5040403;28;20086;-73
2022/04/06 05:03:47;;;;;;;24.02;6.68;;;;;;;8.20;85.51;100105.47;5040844;28;20029;-74
2022/04/06 05:06:13;;;;;;;21.35;6.47;;;;;;;8.21;85.57;100095.63;5039576;28;20041;-74
2022/04/06 05:08:38;;;;;;;20.48;5.45;;;;;;;8.21;85.25;100107.19;5038291;28;20083;-74
2022/04/06 05:11:03;;;;;;;30.73;5.95;;;;;;;8.23;85.40;100096.38;5039893;28;20079;-74
2022/04/06 05:13:28;;;;;;;22.90;6.05;;;;;;;8.23;85.23;100110.59;5040742;28;20037;-74
2022/04/06 05:15:54;;;;;;;20.85;6.70;;;;;;;8.24;85.43;100100.72;5041386;28;20079;-74
2022/04/06 05:18:19;;;;;;;21.50;6.38;;;;;;;8.22;84.94;100106.22;5041377;28;20064;-73
2022/04/06 05:20:44;;;;;;;21.73;5.32;;;;;;;8.23;84.59;100097.22;5042225;28;20033;-73
2022/04/06 05:23:09;;;;;;;16.70;5.13;;;;;;;8.23;84.76;100099.91;5041003;28;20036;-73
2022/04/06 05:25:35;;;;;;;21.67;5.63;;;;;;;8.23;85.02;100093.69;5041373;28;21902;-73
2022/04/06 05:28:00;;;;;;;21.33;5.60;;;;;;;8.24;84.51;100098.06;5041783;28;20145;-73
2022/04/06 05:30:26;;;;;;;17.83;5.18;;;;;;;8.23;84.64;100107.91;5040180;28;20032;-73
2022/04/06 05:32:55;;;;;;;19.20;5.78;;;;;;;8.23;84.38;100099.91;5039716;28;20044;-73
2022/04/06 05:35:23;;;;;;;22.50;5.28;;;;;;;8.22;84.00;100098.19;5040528;28;20435;-74
2022/04/06 05:37:49;;;;;;;20.55;5.10;;;;;;;8.22;84.19;100086.63;5041317;28;20293;-74
2022/04/06 05:40:16;;;;;;;23.67;5.60;;;;;;;8.24;84.62;100098.06;5040907;28;20043;-74
2022/04/06 05:42:42;;;;;;;16.33;4.88;;;;;;;8.24;84.49;100084.66;5039712;28;20037;-74
2022/04/06 05:45:08;;;;;;;19.83;5.55;;;;;;;8.25;84.15;100094.41;5039967;28;20148;-72
2022/04/06 05:47:35;;;;;;;21.13;5.00;;;;;;;8.25;83.90;100086.38;5039550;28;20036;-72
2022/04/06 05:50:01;;;;;;;14.25;4.30;;;;;;;8.25;83.67;100088.22;5039098;28;20400;-72
2022/04/06 05:52:26;;;;;;;22.45;4.70;;;;;;;8.25;83.88;100091.75;5040251;28;20122;-72
2022/04/06 05:54:51;;;;;;;17.33;4.43;;;;;;;8.26;82.82;100093.47;5041651;28;20346;-72
2022/04/06 05:57:18;;;;;;;18.00;4.90;;;;;;;8.27;82.17;100084.44;5039832;28;20460;-72
2022/04/06 05:59:44;;;;;;;16.55;3.95;;;;;;;8.28;82.62;100091.50;5041705;28;20040;-72
2022/04/06 06:02:10;;;;;;;21.58;4.00;;;;;;;8.28;82.25;100091.50;5039809;28;20032;-72
2022/04/06 06:04:35;;;;;;;14.10;3.42;;;;;;;8.30;82.36;100094.06;5040060;28;20496;-72
2022/04/06 06:07:00;;;;;;;15.45;3.78;;;;;;;8.29;81.34;100090.53;5039762;28;20025;-72
2022/04/06 06:09:27;;;;;;;14.55;3.72;;;;;;;8.31;80.76;100090.44;5040057;28;20059;-72
2022/04/06 06:11:54;;;;;;;11.98;3.08;;;;;;;8.31;79.89;100088.59;5040283;28;20036;-72
2022/04/06 06:14:20;;;;;;;9.93;3.08;;;;;;;8.33;79.92;100096.50;5041128;28;20037;-74
2022/04/06 06:16:45;;;;;;;15.93;3.45;;;;;;;8.33;78.90;100091.16;5040137;28;20028;-75
2022/04/06 06:19:11;;;;;;;17.13;3.67;;;;;;;8.34;77.98;100093.72;5040732;28;20041;-74
2022/04/06 06:21:36;;;;;;;10.15;3.22;;;;;;;8.35;76.57;100100.78;5040539;28;20032;-74
2022/04/06 06:24:05;;;;;;;10.00;2.65;;;;;;;8.36;75.55;100090.91;5040743;28;20029;-74
2022/04/06 06:26:31;;;;;;;9.43;2.50;;;;;;;8.39;74.61;100102.25;5041036;28;20040;-74
2022/04/06 06:28:56;;;;;;;10.77;2.90;;;;;;;8.39;75.41;100093.38;5037895;28;20861;-75
2022/04/06 06:31:21;;;;;;;15.80;3.15;;;;;;;8.44;75.63;100109.09;5039319;28;20036;-73
2022/04/06 06:33:48;;;;;;;12.60;2.60;;;;;;;8.44;75.17;100088.53;5039624;28;20021;-75
2022/04/06 06:36:14;;;;;;;10.35;2.38;;;;;;;8.46;74.58;100085.75;5040620;28;20036;-74
2022/04/06 06:38:39;;;;;;;10.50;2.72;;;;;;;8.48;73.79;100086.50;5038508;28;20392;-77
2022/04/06 06:41:04;;;;;;;9.73;2.45;;;;;;;8.49;74.47;100090.88;5039105;28;20045;-74
2022/04/06 06:43:30;;;;;;;9.00;2.78;;;;;;;8.50;74.55;100092.59;5040260;28;20025;-74
2022/04/06 06:45:55;;;;;;;13.40;2.78;;;;;;;8.52;74.32;100088.81;5037254;28;20044;-74
2022/04/06 06:48:20;;;;;;;14.48;2.58;;;;;;;8.53;73.85;100084.31;5040466;28;20036;-74
2022/04/06 06:50:46;;;;;;;7.95;2.22;;;;;;;8.55;73.61;100090.38;5040436;28;20028;-74
2022/04/06 06:53:11;;;;;;;10.88;2.50;;;;;;;8.56;73.07;100073.34;5038430;28;20024;-74
2022/04/06 06:55:36;;;;;;;11.43;2.88;;;;;;;8.58;72.72;100084.81;5048838;28;20107;-74
2022/04/06 06:58:02;;;;;;;9.45;2.28;;;;;;;8.61;72.60;100079.22;5051696;28;20033;-74
2022/04/06 07:00:27;;;;;;;12.40;2.25;;;;;;;8.64;72.19;100075.44;5051135;28;20071;-74
2022/04/06 07:02:52;;;;;;;6.55;1.83;;;;;;;8.64;71.56;100078.97;5036661;28;20036;-74
2022/04/06 07:05:18;;;;;;;9.57;2.10;;;;;;;8.66;72.24;100079.72;5051101;28;20054;-74
2022/04/06 07:07:58;;;;;;;12.02;2.65;;;;;;;8.67;72.98;100081.41;5051232;28;20134;-74
2022/04/06 07:10:25;;;;;;;11.43;2.70;;;;;;;8.68;72.83;100076.91;5051596;28;20017;-74
2022/04/06 07:12:52;;;;;;;8.43;2.65;;;;;;;8.69;73.02;100083.97;5050939;28;20021;-74
2022/04/06 07:15:17;;;;;;;10.45;2.67;;;;;;;8.69;73.21;100086.66;5051402;28;20440;-74
2022/04/06 07:17:43;;;;;;;10.60;3.33;;;;;;;8.67;74.44;100073.38;5050326;28;20063;-74
2022/04/06 07:20:09;;;;;;;12.43;3.13;;;;;;;8.68;75.31;100083.13;5047944;28;20495;-74
2022/04/06 07:22:34;;;;;;;15.90;4.15;;;;;;;8.68;76.51;100077.78;5048912;28;20039;-74
2022/04/06 07:25:00;;;;;;;15.77;3.92;;;;;;;8.67;76.94;100077.91;5051020;28;20119;-74
2022/04/06 07:27:25;;;;;;;17.40;3.95;;;;;;;8.67;77.67;100072.53;5051186;28;20032;-74
2022/04/06 07:29:53;;;;;;;16.17;4.20;;;;;;;8.66;78.27;100063.63;5051414;28;20083;-74
2022/04/06 07:32:18;;;;;;;15.73;3.45;;;;;;;8.67;78.42;100070.72;5051463;28;20480;-74
2022/04/06 07:34:44;;;;;;;15.52;4.15;;;;;;;8.67;78.60;100070.72;5050071;28;20044;-74
2022/04/06 07:37:09;;;;;;;19.92;4.30;;;;;;;8.66;79.15;100052.91;5050375;28;20496;-75
2022/04/06 07:39:35;;;;;;;16.55;3.88;;;;;;;8.66;79.29;100063.63;5039798;28;20037;-74
2022/04/06 07:42:01;;;;;;;15.23;4.53;;;;;;;8.66;79.29;100052.91;5034776;28;20030;-74
2022/04/06 07:44:26;;;;;;;18.65;4.75;;;;;;;8.67;79.29;100060.00;5043007;28;20083;-76
2022/04/06 07:46:52;;;;;;;15.57;3.95;;;;;;;8.68;79.38;100051.00;5046922;28;20029;-73
2022/04/06 07:49:18;;;;;;;21.67;4.82;;;;;;;8.71;79.77;100045.38;5041793;28;20028;-73
2022/04/06 07:51:43;;;;;;;17.77;4.75;;;;;;;8.75;79.71;100035.28;5041656;28;20446;-75
2022/04/06 07:54:09;;;;;;;15.88;3.92;;;;;;;8.82;79.66;100033.81;5039653;28;20563;-74
2022/04/06 07:56:34;;;;;;;11.30;3.58;;;;;;;8.88;79.01;100029.81;5048180;28;20384;-73
2022/04/06 07:58:59;;;;;;;15.35;4.00;;;;;;;8.96;80.10;100031.84;5062409;28;20032;-73
2022/04/06 08:01:25;;;;;;;18.05;4.55;;;;;;;9.01;79.18;100025.16;5039343;28;20032;-74
2022/04/06 08:03:51;;;;;;;18.73;4.20;;;;;;;9.05;78.08;100025.78;5049769;28;20028;-74
2022/04/06 08:06:17;;;;;;;15.10;3.72;;;;;;;9.10;78.82;100035.13;5043508;28;20032;-74
2022/04/06 08:08:42;;;;;;;15.27;4.35;;;;;;;9.11;78.43;100025.28;5050666;28;20496;-73
2022/04/06 08:11:08;;;;;;;19.55;5.00;;;;;;;9.13;77.67;100025.16;5048320;28;20033;-73
2022/04/06 08:13:33;;;;;;;12.43;3.80;;;;;;;9.14;77.92;100026.88;5049052;28;20456;-73
2022/04/06 08:15:59;;;;;;;22.70;4.80;;;;;;;9.12;77.56;100034.16;5049997;28;20107;-73
2022/04/06 08:18:25;;;;;;;13.80;3.78;;;;;;;9.10;77.40;100034.28;5048999;28;20082;-75
2022/04/06 08:20:50;;;;;;;11.93;3.97;;;;;;;9.06;76.64;100036.38;5048484;28;20028;-75
2022/04/06 08:23:17;;;;;;;14.23;3.35;;;;;;;9.07;78.20;100029.19;5045483;28;20080;-75
2022/04/06 08:25:43;;;;;;;13.27;3.83;;;;;;;9.07;78.31;100029.19;5029322;28;20028;-75
2022/04/06 08:28:08;;;;;;;14.07;3.60;;;;;;;9.03;77.27;100030.41;5036737;28;20435;-75
2022/04/06 08:30:40;;;;;;;14.30;3.80;;;;;;;9.02;77.44;100032.25;5050361;28;20707;-74
2022/04/06 08:33:06;;;;;;;16.08;3.63;;;;;;;9.00;77.81;100039.53;5050657;28;20086;-74
2022/04/06 08:35:32;;;;;;;9.30;3.45;;;;;;;9.00;78.07;100034.16;5049581;28;20020;-74
2022/04/06 08:37:57;;;;;;;14.40;3.78;;;;;;;8.99;77.81;100034.28;5049303;28;20094;-76
2022/04/06 08:40:23;;;;;;;15.63;3.92;;;;;;;8.99;77.78;100032.47;5048955;28;20443;-76
2022/04/06 08:42:48;;;;;;;11.25;3.35;;;;;;;9.01;78.38;100030.53;5046105;28;20056;-76
2022/04/06 08:45:14;;;;;;;15.57;3.70;;;;;;;9.02;77.62;100034.91;5050720;28;20013;-76
2022/04/06 08:47:41;;;;;;;11.50;3.13;;;;;;;9.04;78.18;100035.63;5049995;28;20163;-76
2022/04/06 08:50:07;;;;;;;14.15;4.03;;;;;;;9.05;78.57;100023.94;5053657;28;20571;-76
2022/04/06 08:52:33;;;;;;;10.77;2.97;;;;;;;9.09;78.19;100028.09;5038830;28;20158;-76
2022/04/06 08:54:59;;;;;;;8.02;2.95;;;;;;;9.14;78.33;100013.47;5043523;28;20033;-76
2022/04/06 08:57:26;;;;;;;14.02;4.03;;;;;;;9.14;78.12;100003.59;5051520;28;20040;-76
2022/04/06 08:59:51;;;;;;;15.38;3.70;;;;;;;9.17;78.63;100010.53;5051025;28;20021;-76
2022/04/06 09:02:21;;;;;;;12.45;3.95;;;;;;;9.18;78.02;100009.53;5051879;28;20468;-76
2022/04/06 09:04:50;;;;;;;;;;;;;;;9.21;78.50;100020.88;5051712;28;20071;-74
2022/04/06 09:07:20;;;;;;;17.90;4.03;;;;;;;9.17;78.90;100029.31;5034217;28;19917;-76
2022/04/06 09:09:51;;;;;;;20.30;4.45;;;;;;;9.17;79.51;100018.59;5046891;28;20151;-76
2022/04/06 09:12:24;;;;;;;11.73;3.40;;;;;;;9.17;79.05;100019.41;5046174;28;20037;-76
2022/04/06 09:15:12;;;;;;;14.93;4.35;;;;;;;9.21;79.53;100025.38;5047425;28;20025;-76
2022/04/06 09:17:45;;;;;;;24.13;5.05;;;;;;;9.22;79.51;100021.72;5049352;28;20500;-76
2022/04/06 09:20:11;;;;;;;15.00;4.00;;;;;;;9.24;80.08;100026.00;5048207;28;20035;-76
2022/04/06 09:22:37;;;;;;;13.85;3.72;;;;;;;9.24;80.28;100022.47;5049223;28;20082;-76
2022/04/06 09:25:03;;;;;;;14.93;4.32;;;;;;;9.25;81.19;100019.66;5048839;28;20476;-76
2022/04/06 09:27:32;;;;;;;11.25;3.85;;;;;;;9.26;80.30;100012.47;5046674;28;20021;-76
2022/04/06 09:29:59;;;;;;;19.33;4.20;;;;;;;9.28;80.74;100023.91;5050602;28;20373;-76
2022/04/06 09:32:24;;;;;;;13.65;3.88;;;;;;;9.29;80.30;100009.53;5044754;28;20082;-76
2022/04/06 09:34:50;;;;;;;15.02;3.75;;;;;;;9.29;80.05;100016.72;5048944;28;20029;-76
2022/04/06 09:37:29;;;;;;;18.27;4.45;;;;;;;9.29;79.10;100009.53;5049118;28;20036;-76
2022/04/06 09:39:58;;;;;;;18.15;3.58;;;;;;;9.29;79.53;100011.38;5047339;28;20037;-76
2022/04/06 09:42:26;;;;;;;13.25;3.83;;;;;;;9.30;79.82;100019.28;5047556;28;20051;-76
2022/04/06 09:47:40;;;;;;;12.73;3.85;;;;;;;9.32;79.43;100022.69;5047864;28;20031;-76
2022/04/06 09:50:17;;;;;;;16.92;4.20;;;;;;;9.33;79.32;100019.03;5047617;28;20021;-76
2022/04/06 09:52:44;;;;;;;15.68;4.25;;;;;;;9.34;80.45;100012.69;5036296;28;20494;-76
2022/04/06 09:55:12;;;;;;;18.75;5.07;;;;;;;9.36;80.35;100002.69;5043688;28;20780;-76
2022/04/06 09:57:55;;;;;;;14.02;3.95;;;;;;;9.38;80.60;100006.09;5048984;28;20112;-76
2022/04/06 10:00:23;;;;;;;15.18;3.78;;;;;;;9.40;80.38;100004.16;5049791;28;20031;-76
2022/04/06 10:02:57;;;;;;;17.42;4.55;;;;;;;9.41;79.56;99999.63;5049722;28;20119;-76
2022/04/06 10:05:23;;;;;;;17.40;4.20;;;;;;;9.41;80.72;100005.88;5048831;28;20484;-76
2022/04/06 10:07:51;;;;;;;16.35;3.80;;;;;;;9.41;81.92;99986.22;5046764;28;20082;-76
2022/04/06 10:10:17;;;;;;;14.82;4.05;;;;;;;9.42;82.04;99998.66;5049161;28;20040;-76
2022/04/06 10:12:43;;;;;;;20.23;4.35;;;;;;;9.41;81.84;99992.44;5047928;28;20486;-76
2022/04/06 10:15:09;;;;;;;13.77;3.72;;;;;;;9.43;82.05;99982.44;5047384;28;20037;-76
2022/04/06 10:17:35;;;;;;;14.20;3.83;;;;;;;9.45;81.12;99985.00;5047756;28;20124;-76
2022/04/06 10:20:08;;;;;;;12.32;3.75;;;;;;;9.45;82.23;99985.00;5048672;28;20028;-76
2022/04/06 10:23:02;;;;;;;17.63;4.43;;;;;;;9.44;81.21;99985.97;5047392;28;20040;-76
2022/04/06 10:25:48;;;;;;;17.55;4.30;;;;;;;9.42;80.92;99985.25;5042109;28;20696;-76
2022/04/06 10:28:16;;;;;;;17.95;4.07;;;;;;;9.39;81.15;99980.97;5050888;28;20033;-76
2022/04/06 10:31:22;;;;;;;16.10;4.68;;;;;;;9.39;81.50;99989.03;5050055;28;20033;-76
2022/04/06 10:33:49;;;;;;;16.73;4.38;;;;;;;9.37;82.16;99974.03;5049069;28;20503;-77
2022/04/06 10:36:21;;;;;;;13.95;3.92;;;;;;;9.37;82.55;99985.63;5049943;28;20043;-76
2022/04/06 10:39:05;;;;;;;15.50;4.03;;;;;;;9.37;81.38;99982.06;5049876;28;20032;-76
2022/04/06 10:41:32;;;;;;;15.52;4.40;;;;;;;9.38;82.17;99979.28;5048241;28;20037;-76
2022/04/06 10:43:57;;;;;;;17.35;5.15;;;;;;;9.40;82.47;99980.00;5048181;28;20116;-76
2022/04/06 10:46:39;;;;;;;16.90;4.20;;;;;;;9.41;82.01;99979.03;5048415;28;20103;-76
2022/04/06 10:49:08;;;;;;;12.52;3.83;;;;;;;9.38;82.57;99971.22;5048259;28;20063;-76
2022/04/06 10:51:34;;;;;;;15.90;4.47;;;;;;;9.39;81.63;99977.47;5037740;28;20500;-76
2022/04/06 10:54:19;;;;;;;17.38;4.15;;;;;;;9.40;81.84;99973.78;5037393;28;20041;-75
2022/04/06 10:56:52;;;;;;;12.63;3.63;;;;;;;9.39;81.47;99972.94;5047240;28;20060;-76
2022/04/06 10:59:26;;;;;;;13.85;3.42;;;;;;;9.40;81.07;99971.09;5048451;28;20021;-76
2022/04/06 11:02:21;;;;;;;14.85;4.60;;;;;;;9.44;81.72;99967.19;5047723;28;20025;-76
2022/04/06 11:04:48;;;;;;;13.73;4.10;;;;;;;9.45;81.28;99959.00;5048156;28;20186;-76
2022/04/06 11:10:06;;;;;;;14.20;3.67;;;;;;;9.45;82.27;99956.31;5047726;28;20024;-76
2022/04/06 11:10:15;;;;;;;10.35;3.13;;;;;;;9.49;81.58;99953.38;5053695;28;20471;-76
2022/04/06 11:12:57;;;;;;;13.23;4.18;;;;;;;9.50;81.49;99952.41;5052311;28;20021;-75
2022/04/06 11:15:37;;;;;;;12.75;3.65;;;;;;;9.50;81.22;99950.56;5049526;28;20183;-75
2022/04/06 11:18:03;;;;;;;13.00;3.65;;;;;;;9.52;79.75;99942.44;5048540;28;20064;-75
2022/04/06 11:20:33;;;;;;;16.00;3.55;;;;;;;9.54;79.94;99940.47;5049229;28;20052;-75
2022/04/06 11:22:58;;;;;;;;;;;;;;;9.59;80.88;99939.09;5048298;28;20024;-75
2022/04/06 11:25:29;;;;;;;14.32;3.70;;;;;;;9.60;79.15;99943.50;5049675;28;20304;-75
2022/04/06 11:28:11;;;;;;;15.95;3.80;;;;;;;9.61;79.76;99936.28;5049651;28;20037;-75
2022/04/06 11:30:42;;;;;;;13.30;3.63;;;;;;;9.63;80.15;99934.31;5049848;28;20394;-75
2022/04/06 11:33:08;;;;;;;6.72;3.28;;;;;;;9.64;78.55;99927.13;5047461;28;20494;-75
2022/04/06 11:35:35;;;;;;;11.07;3.88;;;;;;;9.66;78.87;99933.22;5048457;28;20027;-76